Time;durP1;ratioP1;P1;durP2;ratioP2;P2;SDS_P1;SDS_P2;PMS_P1;PMS_P2;Temp;Humidity;BMP_temperature;BMP_pressure;BME280_temperature;BME280_humidity;BME280_pressure;Samples;Min_cycle;Max_cycle;Signal;HPM_P1;HPM_P2
2023/10/27 00:00:58;;;;;;;2.50;2.10;;;21.70;45.10;;;;;;4975173;28;20242;-82
2023/10/27 00:03:24;;;;;;;2.60;2.27;;;21.70;45.10;;;;;;4977619;28;20948;-82
2023/10/27 00:05:50;;;;;;;2.00;1.90;;;21.70;45.10;;;;;;4961890;28;20227;-82
2023/10/27 00:08:16;;;;;;;2.30;2.10;;;21.70;45.10;;;;;;4988601;28;20255;-82
2023/10/27 00:10:41;;;;;;;3.10;2.23;;;21.70;45.10;;;;;;4949878;28;20220;-83
2023/10/27 00:13:07;;;;;;;2.00;1.80;;;21.70;45.10;;;;;;4976042;28;20331;-82
2023/10/27 00:15:33;;;;;;;2.20;2.00;;;21.70;45.20;;;;;;4972169;28;20228;-82
2023/10/27 00:17:59;;;;;;;2.20;2.00;;;21.60;45.10;;;;;;4975221;28;20734;-82
2023/10/27 00:20:25;;;;;;;2.27;2.07;;;21.70;45.20;;;;;;4975624;28;20221;-82
2023/10/27 00:22:51;;;;;;;1.87;1.77;;;21.60;45.10;;;;;;4978547;28;20828;-82
2023/10/27 00:25:16;;;;;;;4.00;2.10;;;21.70;45.20;;;;;;4976396;28;20587;-84
2023/10/27 00:27:42;;;;;;;2.30;2.10;;;21.70;45.20;;;;;;4973481;28;20228;-81
2023/10/27 00:30:09;;;;;;;2.87;2.20;;;21.70;45.20;;;;;;4968104;28;20251;-81
2023/10/27 00:32:36;;;;;;;2.00;1.90;;;21.60;45.10;;;;;;4977677;28;20216;-83
2023/10/27 00:35:02;;;;;;;2.50;2.30;;;21.60;45.10;;;;;;4936571;28;20487;-81
2023/10/27 00:37:28;;;;;;;1.90;1.80;;;21.60;45.10;;;;;;4935605;28;20909;-82
2023/10/27 00:39:53;;;;;;;2.30;2.20;;;21.60;45.10;;;;;;4935508;28;20571;-82
2023/10/27 00:42:19;;;;;;;2.00;1.90;;;21.60;45.10;;;;;;4939526;28;20234;-83
2023/10/27 00:44:44;;;;;;;1.97;1.87;;;21.60;45.10;;;;;;4936576;28;20229;-82
2023/10/27 00:47:10;;;;;;;2.13;2.03;;;21.60;45.10;;;;;;4935079;28;20218;-82
2023/10/27 00:49:36;;;;;;;2.20;2.00;;;21.60;45.20;;;;;;4937195;28;20300;-82
2023/10/27 00:52:02;;;;;;;2.50;2.27;;;21.60;45.10;;;;;;4938506;28;20232;-81
2023/10/27 00:54:28;;;;;;;1.87;1.77;;;21.60;45.10;;;;;;4939884;28;20217;-82
2023/10/27 00:56:55;;;;;;;1.97;1.80;;;21.60;45.20;;;;;;4941628;28;20506;-82
2023/10/27 00:59:20;;;;;;;2.30;2.10;;;21.60;45.20;;;;;;4936743;28;20471;-82
2023/10/27 01:01:46;;;;;;;1.83;1.73;;;21.60;45.20;;;;;;4942350;28;20488;-81
2023/10/27 01:04:11;;;;;;;2.70;1.83;;;21.60;45.20;;;;;;4940846;28;20929;-83
2023/10/27 01:06:37;;;;;;;2.57;2.23;;;21.60;45.20;;;;;;4942146;28;20217;-82
2023/10/27 01:09:03;;;;;;;2.47;1.87;;;21.60;45.20;;;;;;4943589;28;20238;-82
2023/10/27 01:11:29;;;;;;;1.90;1.80;;;21.60;45.20;;;;;;4941382;28;20225;-82
2023/10/27 01:13:55;;;;;;;1.90;1.80;;;21.60;45.20;;;;;;4943112;28;20632;-82
2023/10/27 01:16:21;;;;;;;1.80;1.70;;;21.60;46.00;;;;;;4941384;28;21266;-82
2023/10/27 01:18:47;;;;;;;1.80;1.70;;;21.60;45.20;;;;;;4944340;28;20824;-83
2023/10/27 01:21:12;;;;;;;5.50;2.30;;;21.60;45.20;;;;;;4938525;28;21002;-83
2023/10/27 01:23:38;;;;;;;1.90;1.80;;;21.60;45.20;;;;;;4942381;28;20694;-85
2023/10/27 01:26:04;;;;;;;2.43;2.13;;;21.60;45.20;;;;;;4938558;28;20675;-82
2023/10/27 01:28:31;;;;;;;1.93;1.83;;;21.60;45.20;;;;;;4940929;28;20226;-82
2023/10/27 01:30:57;;;;;;;1.70;1.60;;;21.60;45.20;;;;;;4936589;28;20799;-83
2023/10/27 01:33:23;;;;;;;2.23;1.83;;;21.60;45.20;;;;;;4953728;28;20557;-82
2023/10/27 01:35:50;;;;;;;2.00;1.80;;;21.60;45.20;;;;;;4977990;28;20370;-82
2023/10/27 01:38:16;;;;;;;3.53;2.10;;;21.60;45.20;;;;;;4976489;28;20472;-82
2023/10/27 01:40:41;;;;;;;2.07;1.97;;;21.60;45.20;;;;;;4975996;28;22449;-81
2023/10/27 01:43:07;;;;;;;1.93;1.83;;;21.60;45.30;;;;;;4976538;28;20228;-81
2023/10/27 01:45:32;;;;;;;2.00;1.90;;;21.60;45.30;;;;;;4971641;28;20235;-82
2023/10/27 01:47:58;;;;;;;1.90;1.80;;;21.60;45.20;;;;;;4973271;28;20223;-82
2023/10/27 01:50:23;;;;;;;3.43;1.90;;;21.60;45.30;;;;;;4955853;28;20965;-83
2023/10/27 01:52:49;;;;;;;1.70;1.60;;;21.60;45.20;;;;;;4975426;28;20259;-82
2023/10/27 01:55:14;;;;;;;3.13;1.83;;;21.60;45.20;;;;;;4975917;28;20228;-82
2023/10/27 01:57:40;;;;;;;2.20;1.77;;;21.60;45.20;;;;;;4975650;28;20236;-84
2023/10/27 02:00:07;;;;;;;2.63;1.43;;;21.60;45.30;;;;;;4975246;28;20228;-84
2023/10/27 02:02:34;;;;;;;3.03;1.80;;;21.60;45.20;;;;;;4986655;28;20221;-83
2023/10/27 02:05:01;;;;;;;1.80;1.70;;;21.50;45.20;;;;;;4972439;28;20466;-84
2023/10/27 02:07:27;;;;;;;1.47;1.37;;;21.60;45.30;;;;;;4974517;28;20457;-84
2023/10/27 02:09:52;;;;;;;1.70;1.60;;;21.60;45.30;;;;;;4972486;28;20497;-82
2023/10/27 02:12:18;;;;;;;1.70;1.60;;;21.60;45.30;;;;;;4974621;28;20266;-84
2023/10/27 02:14:43;;;;;;;2.20;2.10;;;21.60;45.30;;;;;;4972832;28;20235;-82
2023/10/27 02:17:11;;;;;;;2.40;1.77;;;21.60;45.40;;;;;;4951918;28;20240;-82
2023/10/27 02:19:37;;;;;;;2.03;1.70;;;21.60;45.30;;;;;;4970312;28;20680;-82
2023/10/27 02:22:02;;;;;;;2.03;1.77;;;21.50;45.30;;;;;;4955475;28;20451;-82
2023/10/27 02:24:28;;;;;;;2.20;1.80;;;21.50;45.30;;;;;;4970208;28;20220;-82
2023/10/27 02:26:54;;;;;;;1.87;1.67;;;21.50;45.20;;;;;;4973846;28;20661;-83
2023/10/27 02:29:20;;;;;;;2.33;2.17;;;21.50;45.20;;;;;;4987061;28;20224;-83
2023/10/27 02:31:45;;;;;;;3.63;1.67;;;21.50;45.20;;;;;;4968937;28;20224;-82
2023/10/27 02:34:11;;;;;;;1.80;1.70;;;21.50;45.30;;;;;;4969306;28;20558;-82
2023/10/27 02:36:37;;;;;;;1.90;1.80;;;21.50;45.20;;;;;;4973309;28;20299;-82
2023/10/27 02:39:02;;;;;;;2.23;1.60;;;21.50;45.20;;;;;;4968394;28;20216;-82
2023/10/27 02:41:28;;;;;;;2.40;1.47;;;21.50;45.30;;;;;;4987139;28;20298;-84
2023/10/27 02:43:53;;;;;;;2.00;1.80;;;21.50;45.30;;;;;;4971948;28;20235;-82
2023/10/27 02:46:19;;;;;;;1.63;1.53;;;21.50;45.30;;;;;;4969991;28;20226;-84
2023/10/27 02:48:44;;;;;;;1.50;1.40;;;21.50;45.30;;;;;;4972039;28;20306;-82
2023/10/27 02:51:11;;;;;;;2.50;2.00;;;21.50;45.30;;;;;;4972938;28;20235;-82
2023/10/27 02:53:37;;;;;;;1.90;1.53;;;21.50;45.30;;;;;;4971573;28;20224;-83
2023/10/27 02:56:10;;;;;;;1.77;1.67;;;21.50;45.20;;;;;;4969358;28;20525;-82
2023/10/27 02:58:36;;;;;;;1.90;1.80;;;21.50;45.30;;;;;;4970948;28;20311;-83
2023/10/27 03:01:15;;;;;;;1.60;1.50;;;21.50;45.30;;;;;;4954306;28;20466;-82
2023/10/27 03:03:44;;;;;;;1.70;1.60;;;21.50;45.30;;;;;;4957796;28;20582;-84
2023/10/27 03:06:11;;;;;;;2.00;1.50;;;21.50;45.40;;;;;;4952050;28;20821;-82
2023/10/27 03:08:37;;;;;;;1.90;1.80;;;21.50;45.30;;;;;;4970240;28;20473;-82
2023/10/27 03:11:03;;;;;;;2.00;1.90;;;21.50;45.30;;;;;;4964079;28;20473;-81
2023/10/27 03:13:30;;;;;;;3.13;1.70;;;21.50;45.30;;;;;;4973783;28;20469;-83
2023/10/27 03:15:59;;;;;;;1.60;1.50;;;21.50;45.30;;;;;;4972768;28;20231;-83
2023/10/27 03:18:25;;;;;;;2.10;1.60;;;21.50;45.30;;;;;;4970632;28;20481;-83
2023/10/27 03:20:58;;;;;;;1.70;1.60;;;21.50;45.40;;;;;;4983450;28;20466;-82
2023/10/27 03:23:24;;;;;;;1.40;1.30;;;21.50;46.20;;;;;;4963022;28;20688;-82
2023/10/27 03:25:50;;;;;;;1.57;1.47;;;21.50;45.40;;;;;;4964323;28;21019;-82
2023/10/27 03:28:15;;;;;;;1.60;1.50;;;21.50;45.30;;;;;;4968215;28;20467;-82
2023/10/27 03:30:42;;;;;;;1.60;1.50;;;21.50;45.40;;;;;;4956737;28;20585;-83
2023/10/27 03:33:08;;;;;;;1.50;1.40;;;21.50;45.30;;;;;;4956731;28;20274;-83
2023/10/27 03:35:34;;;;;;;1.90;1.80;;;21.50;45.40;;;;;;4968697;28;20941;-82
2023/10/27 03:38:00;;;;;;;1.60;1.50;;;21.50;45.40;;;;;;4963614;28;20241;-84
2023/10/27 03:40:25;;;;;;;1.83;1.70;;;21.50;45.30;;;;;;4970170;28;20461;-84
2023/10/27 03:42:51;;;;;;;1.63;1.53;;;21.50;45.40;;;;;;4966496;28;20692;-83
2023/10/27 03:45:16;;;;;;;1.80;1.70;;;21.50;45.40;;;;;;4965113;28;20224;-82
2023/10/27 03:47:42;;;;;;;1.60;1.50;;;21.50;45.30;;;;;;4964810;28;20231;-82
2023/10/27 03:50:08;;;;;;;2.50;1.50;;;21.50;45.30;;;;;;4970987;28;20229;-82
2023/10/27 03:52:33;;;;;;;1.57;1.47;;;21.50;45.40;;;;;;4966833;28;20222;-83
2023/10/27 03:54:59;;;;;;;1.60;1.50;;;21.50;45.30;;;;;;4962343;28;20687;-83
2023/10/27 03:57:24;;;;;;;1.40;1.30;;;21.50;45.30;;;;;;4964675;28;20328;-82
2023/10/27 03:59:50;;;;;;;1.60;1.50;;;21.50;45.30;;;;;;4965683;28;20228;-81
2023/10/27 04:02:16;;;;;;;1.60;1.50;;;21.50;45.30;;;;;;4969195;28;20237;-83
2023/10/27 04:04:42;;;;;;;1.50;1.40;;;21.50;45.30;;;;;;4968983;28;20458;-84
2023/10/27 04:07:07;;;;;;;1.93;1.40;;;21.50;45.30;;;;;;4970390;28;20227;-84
2023/10/27 04:09:33;;;;;;;1.50;1.40;;;21.50;45.30;;;;;;4966608;28;20235;-83
2023/10/27 04:11:58;;;;;;;1.97;1.50;;;21.50;45.20;;;;;;4951308;28;20235;-81
2023/10/27 04:14:24;;;;;;;1.40;1.30;;;21.50;45.30;;;;;;4967334;28;20220;-81
2023/10/27 04:16:49;;;;;;;1.80;1.70;;;21.50;45.30;;;;;;4970023;28;20232;-82
2023/10/27 04:19:15;;;;;;;1.80;1.60;;;21.50;45.30;;;;;;4959908;28;20234;-85
2023/10/27 04:21:40;;;;;;;2.10;1.90;;;21.50;45.30;;;;;;4959658;28;20224;-81
2023/10/27 04:24:06;;;;;;;1.60;1.50;;;21.50;45.30;;;;;;4966349;28;20239;-82
2023/10/27 04:26:32;;;;;;;1.57;1.47;;;21.50;45.30;;;;;;4968942;28;20233;-82
2023/10/27 04:28:57;;;;;;;2.00;1.80;;;21.50;45.30;;;;;;4953264;28;20227;-84
2023/10/27 04:31:23;;;;;;;1.80;1.53;;;21.50;45.30;;;;;;4959826;28;20538;-82
2023/10/27 04:33:49;;;;;;;1.80;1.70;;;21.50;45.30;;;;;;4966044;28;20569;-82
2023/10/27 04:36:15;;;;;;;1.60;1.50;;;21.50;45.30;;;;;;4965309;28;20224;-83
2023/10/27 04:38:42;;;;;;;3.10;1.50;;;21.50;45.30;;;;;;4969371;28;20469;-83
2023/10/27 04:41:08;;;;;;;1.70;1.60;;;21.50;45.30;;;;;;4967668;28;20232;-85
2023/10/27 04:43:35;;;;;;;1.50;1.40;;;21.50;45.40;;;;;;4964601;28;21724;-84
2023/10/27 04:46:00;;;;;;;2.50;1.63;;;21.50;45.30;;;;;;4933766;28;20259;-85
2023/10/27 04:48:26;;;;;;;2.23;2.13;;;21.50;45.30;;;;;;4946615;28;20508;-83
2023/10/27 04:50:53;;;;;;;1.73;1.63;;;21.50;45.30;;;;;;4960416;28;20687;-86
2023/10/27 04:53:19;;;;;;;1.40;1.30;;;21.50;45.30;;;;;;4967430;28;20256;-84
2023/10/27 04:55:45;;;;;;;1.70;1.50;;;21.50;45.30;;;;;;4964378;28;20488;-82
2023/10/27 04:58:10;;;;;;;1.57;1.47;;;21.50;45.30;;;;;;4950192;28;20233;-85
2023/10/27 05:00:37;;;;;;;1.57;1.47;;;21.50;45.30;;;;;;4967023;28;20224;-82
2023/10/27 05:03:02;;;;;;;2.07;1.80;;;21.50;45.30;;;;;;4967755;28;20220;-84
2023/10/27 05:05:28;;;;;;;2.07;1.37;;;21.50;45.30;;;;;;4967721;28;20866;-82
2023/10/27 05:07:55;;;;;;;1.47;1.37;;;21.50;45.30;;;;;;4951823;28;20236;-82
2023/10/27 05:10:21;;;;;;;1.77;1.60;;;21.50;45.30;;;;;;4965467;28;20220;-82
2023/10/27 05:12:46;;;;;;;1.67;1.57;;;21.50;45.30;;;;;;4969260;28;20424;-85
2023/10/27 05:15:13;;;;;;;1.73;1.60;;;21.50;45.30;;;;;;4941963;28;20229;-82
2023/10/27 05:17:38;;;;;;;1.40;1.30;;;21.50;45.20;;;;;;4943195;28;20630;-84
2023/10/27 05:20:08;;;;;;;1.63;1.50;;;21.50;45.20;;;;;;4964931;28;20519;-87
2023/10/27 05:22:33;;;;;;;1.40;1.30;;;21.50;45.20;;;;;;4963949;28;20228;-82
2023/10/27 05:25:05;;;;;;;1.30;1.20;;;21.50;45.20;;;;;;4967450;28;20469;-82
2023/10/27 05:27:31;;;;;;;1.40;1.30;;;21.50;45.40;;;;;;4959707;28;20615;-82
2023/10/27 05:29:56;;;;;;;1.80;1.47;;;21.50;45.20;;;;;;4959869;28;20518;-82
2023/10/27 05:32:22;;;;;;;3.00;1.50;;;21.50;45.20;;;;;;4965796;28;20307;-82
2023/10/27 05:34:47;;;;;;;3.20;2.13;;;21.50;45.20;;;;;;4963111;28;20269;-84
2023/10/27 05:37:13;;;;;;;3.93;2.03;;;21.50;45.20;;;;;;4949159;28;20299;-84
2023/10/27 05:39:39;;;;;;;2.40;2.20;;;21.50;45.20;;;;;;4965054;28;20668;-82
2023/10/27 05:42:04;;;;;;;4.17;2.80;;;21.50;45.20;;;;;;4965744;28;20349;-84
2023/10/27 05:44:30;;;;;;;4.33;3.03;;;21.50;45.20;;;;;;4960067;28;20363;-83
2023/10/27 05:46:58;;;;;;;3.80;3.40;;;21.50;45.20;;;;;;4963925;28;20303;-83
2023/10/27 05:49:23;;;;;;;5.60;3.90;;;21.50;45.20;;;;;;4963988;28;20227;-83
2023/10/27 05:51:49;;;;;;;7.77;3.73;;;21.50;45.20;;;;;;4965141;28;20478;-82
2023/10/27 05:54:15;;;;;;;4.13;3.83;;;21.50;45.20;;;;;;4964858;28;20875;-84
2023/10/27 05:56:40;;;;;;;4.80;4.37;;;21.50;45.20;;;;;;4965974;28;20236;-86
2023/10/27 05:59:06;;;;;;;5.10;4.60;;;21.50;45.20;;;;;;4965446;28;20688;-83
2023/10/27 06:01:33;;;;;;;4.60;3.80;;;21.60;45.20;;;;;;4962393;28;20755;-86
2023/10/27 06:03:59;;;;;;;4.97;4.47;;;21.50;45.10;;;;;;4963871;28;20219;-86
2023/10/27 06:06:25;;;;;;;4.60;4.10;;;21.60;45.20;;;;;;4951552;28;20465;-82
2023/10/27 06:08:50;;;;;;;8.73;5.40;;;21.60;45.20;;;;;;4965686;28;20474;-84
2023/10/27 06:11:16;;;;;;;4.60;4.20;;;21.50;45.10;;;;;;4967655;28;20484;-82
2023/10/27 06:13:41;;;;;;;6.10;4.80;;;21.60;45.10;;;;;;4965518;28;20808;-84
2023/10/27 06:16:07;;;;;;;5.30;4.77;;;21.60;45.10;;;;;;4967011;28;20220;-85
2023/10/27 06:18:33;;;;;;;7.63;4.97;;;21.60;45.20;;;;;;4965569;28;21978;-85
2023/10/27 06:20:59;;;;;;;6.07;5.47;;;21.60;45.20;;;;;;4966111;28;20224;-85
2023/10/27 06:23:25;;;;;;;5.27;4.77;;;21.60;45.20;;;;;;4966320;28;20434;-85
2023/10/27 06:25:50;;;;;;;5.60;5.00;;;21.60;45.10;;;;;;4968444;28;20228;-83
2023/10/27 06:28:16;;;;;;;7.10;4.93;;;21.60;45.20;;;;;;4961030;28;20243;-82
2023/10/27 06:30:42;;;;;;;8.80;5.23;;;21.60;45.20;;;;;;4976859;28;20224;-82
2023/10/27 06:33:07;;;;;;;7.73;4.33;;;21.60;45.20;;;;;;4962553;28;20247;-86
2023/10/27 06:35:33;;;;;;;6.50;4.80;;;21.60;45.20;;;;;;4964482;28;20307;-83
2023/10/27 06:37:59;;;;;;;6.07;5.30;;;21.60;45.20;;;;;;4964623;28;20322;-82
2023/10/27 06:40:24;;;;;;;5.87;5.27;;;21.60;45.10;;;;;;4965448;28;20224;-83
2023/10/27 06:42:50;;;;;;;5.23;4.73;;;21.60;45.20;;;;;;4965039;28;20290;-84
2023/10/27 06:45:15;;;;;;;5.50;5.00;;;21.60;45.20;;;;;;4945127;28;20252;-83
2023/10/27 06:47:41;;;;;;;5.47;4.67;;;21.60;45.10;;;;;;4953536;28;20227;-83
2023/10/27 06:50:07;;;;;;;5.10;4.50;;;21.60;45.10;;;;;;4960942;28;20228;-83
2023/10/27 06:52:34;;;;;;;6.30;5.37;;;21.60;45.20;;;;;;4962752;28;21023;-82
2023/10/27 06:55:00;;;;;;;4.73;4.33;;;21.50;45.10;;;;;;4944135;28;20497;-84
2023/10/27 06:57:27;;;;;;;5.83;4.93;;;21.60;45.10;;;;;;4975520;28;20482;-83
2023/10/27 06:59:55;;;;;;;9.60;4.70;;;21.60;45.10;;;;;;4968072;28;20461;-83
2023/10/27 07:02:25;;;;;;;5.63;5.10;;;21.60;45.10;;;;;;4965182;28;20470;-83
2023/10/27 07:04:50;;;;;;;4.90;4.37;;;21.60;45.10;;;;;;4965527;28;20505;-86
2023/10/27 07:07:16;;;;;;;4.90;4.37;;;21.60;45.10;;;;;;4960525;28;20783;-82
2023/10/27 07:09:42;;;;;;;6.80;5.50;;;21.60;45.10;;;;;;4962948;28;21038;-85
2023/10/27 07:12:08;;;;;;;5.53;4.23;;;21.60;45.00;;;;;;4941891;28;20226;-84
2023/10/27 07:14:37;;;;;;;5.67;4.50;;;21.60;45.10;;;;;;4954649;28;20466;-86
2023/10/27 07:17:03;;;;;;;4.43;4.03;;;21.60;45.10;;;;;;4965213;28;20240;-82
2023/10/27 07:19:35;;;;;;;4.43;4.03;;;21.60;45.10;;;;;;4947428;28;20480;-84
2023/10/27 07:22:01;;;;;;;5.97;5.13;;;21.60;45.10;;;;;;4966488;28;20220;-82
2023/10/27 07:24:30;;;;;;;6.63;4.40;;;21.60;45.10;;;;;;4953394;28;20465;-86
2023/10/27 07:26:56;;;;;;;5.50;5.00;;;21.60;45.10;;;;;;4963727;28;20373;-85
2023/10/27 07:29:21;;;;;;;5.23;4.83;;;21.60;45.10;;;;;;4965117;28;21021;-83
2023/10/27 07:31:47;;;;;;;6.30;4.97;;;21.60;45.10;;;;;;4964806;28;20283;-83
2023/10/27 07:34:12;;;;;;;5.33;4.40;;;21.60;45.10;;;;;;4961790;28;20232;-83
2023/10/27 07:36:38;;;;;;;6.30;4.70;;;21.60;45.10;;;;;;4978990;28;21127;-83
2023/10/27 07:39:03;;;;;;;8.30;5.43;;;21.60;45.00;;;;;;4967475;28;20319;-85
2023/10/27 07:41:29;;;;;;;7.70;5.43;;;21.60;45.10;;;;;;4962956;28;20623;-84
2023/10/27 07:43:55;;;;;;;5.57;5.00;;;21.60;45.10;;;;;;4944406;28;20603;-82
2023/10/27 07:46:20;;;;;;;5.87;4.27;;;21.60;45.10;;;;;;4964688;28;20228;-83
2023/10/27 07:48:46;;;;;;;5.43;4.80;;;21.60;45.10;;;;;;4963050;28;20220;-85
2023/10/27 07:51:11;;;;;;;7.00;5.33;;;21.60;45.10;;;;;;4963941;28;20843;-83
2023/10/27 07:53:38;;;;;;;5.50;4.37;;;21.60;45.10;;;;;;4946704;28;20881;-83
2023/10/27 07:56:04;;;;;;;4.83;4.43;;;21.60;45.00;;;;;;4965251;28;20718;-84
2023/10/27 07:58:30;;;;;;;5.87;5.30;;;21.60;45.00;;;;;;4952664;28;20470;-84
2023/10/27 08:00:55;;;;;;;5.67;4.67;;;21.60;45.90;;;;;;4968695;28;20570;-86
2023/10/27 08:03:22;;;;;;;4.87;3.63;;;21.60;45.00;;;;;;4968285;28;20247;-82
2023/10/27 08:05:49;;;;;;;5.10;4.60;;;21.60;45.00;;;;;;4953134;28;22311;-83
2023/10/27 08:08:14;;;;;;;5.40;4.47;;;21.60;45.10;;;;;;4969987;28;20520;-83
2023/10/27 08:10:42;;;;;;;5.30;4.90;;;21.60;45.00;;;;;;4963624;28;20577;-83
2023/10/27 08:13:07;;;;;;;5.67;4.87;;;21.50;45.00;;;;;;4967645;28;20220;-83
2023/10/27 08:15:34;;;;;;;7.90;5.20;;;21.60;45.00;;;;;;4946536;28;20470;-85
2023/10/27 08:18:00;;;;;;;5.13;4.70;;;21.50;45.10;;;;;;4968190;28;20489;-83
2023/10/27 08:20:26;;;;;;;6.50;3.77;;;21.60;45.00;;;;;;4966649;28;20580;-86
2023/10/27 08:22:52;;;;;;;5.87;4.40;;;21.60;45.00;;;;;;4947916;28;20463;-83
2023/10/27 08:25:22;;;;;;;5.20;4.70;;;21.60;45.00;;;;;;4952308;28;20228;-83
2023/10/27 08:27:51;;;;;;;3.90;3.60;;;21.50;45.00;;;;;;4967048;28;20235;-82
2023/10/27 08:30:17;;;;;;;3.80;3.50;;;21.50;45.00;;;;;;4966248;28;20597;-83
2023/10/27 08:32:43;;;;;;;5.33;4.30;;;21.50;45.00;;;;;;4952747;28;20521;-83
2023/10/27 08:35:08;;;;;;;4.70;4.40;;;21.50;45.00;;;;;;4952785;28;20914;-84
2023/10/27 08:37:34;;;;;;;5.23;3.90;;;21.50;45.00;;;;;;4960176;28;20272;-83
2023/10/27 08:40:00;;;;;;;4.37;3.97;;;21.50;44.90;;;;;;4958245;28;20404;-83
2023/10/27 08:42:28;;;;;;;5.70;4.63;;;21.50;45.00;;;;;;4966339;28;20308;-84
2023/10/27 08:44:54;;;;;;;4.40;4.10;;;21.50;45.00;;;;;;4967901;28;20465;-84
2023/10/27 08:47:21;;;;;;;5.77;4.07;;;21.50;45.00;;;;;;4965656;28;20474;-83
2023/10/27 08:49:47;;;;;;;4.70;4.40;;;21.50;44.90;;;;;;4980589;28;20463;-82
2023/10/27 08:52:14;;;;;;;5.13;4.00;;;21.50;45.00;;;;;;4966620;28;20548;-82
2023/10/27 08:54:45;;;;;;;4.53;4.13;;;21.50;45.00;;;;;;4947680;28;20794;-83
2023/10/27 08:57:11;;;;;;;4.87;4.43;;;21.50;45.00;;;;;;4966620;28;20588;-85
2023/10/27 08:59:36;;;;;;;4.40;4.00;;;21.50;45.00;;;;;;4966023;28;20552;-86
2023/10/27 09:02:04;;;;;;;4.20;3.90;;;21.50;45.00;;;;;;4978427;28;20559;-83
2023/10/27 09:04:31;;;;;;;5.33;4.23;;;21.50;45.00;;;;;;4948902;28;20316;-83
2023/10/27 09:06:57;;;;;;;4.37;3.97;;;21.50;45.00;;;;;;4966574;28;20462;-84
2023/10/27 09:09:23;;;;;;;4.03;3.73;;;21.50;44.90;;;;;;4966473;28;20504;-84
2023/10/27 09:11:49;;;;;;;3.80;3.50;;;21.50;44.90;;;;;;4967151;28;20470;-82
2023/10/27 09:14:26;;;;;;;4.87;4.07;;;21.50;44.90;;;;;;4966645;28;20451;-83
2023/10/27 09:17:05;;;;;;;4.17;3.87;;;21.50;44.90;;;;;;4938965;28;21051;-83
2023/10/27 09:19:32;;;;;;;4.00;3.70;;;21.50;44.90;;;;;;4965636;28;20470;-84
2023/10/27 09:21:58;;;;;;;3.60;3.30;;;21.50;45.00;;;;;;4965899;28;20550;-85
2023/10/27 09:24:28;;;;;;;4.27;3.90;;;21.50;45.00;;;;;;4966468;28;20460;-85
2023/10/27 09:26:57;;;;;;;3.67;3.47;;;21.50;44.90;;;;;;4966506;28;20469;-83
2023/10/27 09:29:23;;;;;;;3.27;3.00;;;21.50;45.00;;;;;;4960572;28;21061;-82
2023/10/27 09:31:50;;;;;;;4.27;3.87;;;21.50;45.00;;;;;;4966240;28;20536;-83
2023/10/27 09:34:19;;;;;;;3.53;3.23;;;21.50;45.00;;;;;;4963811;28;20469;-83
2023/10/27 09:36:46;;;;;;;3.60;3.40;;;21.50;45.00;;;;;;4966016;28;20451;-84
2023/10/27 09:39:20;;;;;;;3.80;3.50;;;21.50;44.90;;;;;;4966254;28;20498;-86
2023/10/27 09:41:47;;;;;;;3.60;3.40;;;21.50;45.00;;;;;;4964373;28;20465;-83
2023/10/27 09:44:19;;;;;;;3.70;3.40;;;21.50;45.00;;;;;;4964737;28;20462;-83
2023/10/27 09:46:52;;;;;;;3.43;3.13;;;21.50;45.00;;;;;;4969166;28;20465;-82
2023/10/27 09:49:38;;;;;;;3.30;3.00;;;21.50;44.90;;;;;;4972094;28;20567;-83
2023/10/27 09:52:09;;;;;;;4.07;3.77;;;21.50;45.00;;;;;;4964024;28;20532;-82
2023/10/27 09:54:36;;;;;;;3.13;2.93;;;21.50;45.00;;;;;;4965425;28;21036;-86
2023/10/27 09:57:02;;;;;;;3.83;3.60;;;21.50;45.00;;;;;;4963020;28;20461;-84
2023/10/27 09:59:30;;;;;;;3.50;3.30;;;21.50;45.10;;;;;;4965619;28;20469;-84
2023/10/27 10:02:02;;;;;;;3.40;2.70;;;21.50;45.00;;;;;;4966407;28;20473;-84
2023/10/27 10:04:56;;;;;;;3.87;3.60;;;21.50;45.00;;;;;;4967608;28;21011;-82
2023/10/27 10:07:34;;;;;;;4.03;3.63;;;21.50;44.90;;;;;;4956325;28;20541;-82
2023/10/27 10:10:34;;;;;;;3.03;2.80;;;21.50;45.00;;;;;;4978778;28;20758;-84
2023/10/27 10:13:14;;;;;;;3.07;2.87;;;21.50;45.00;;;;;;4959391;28;20483;-86
2023/10/27 10:15:41;;;;;;;3.23;3.00;;;21.50;45.00;;;;;;4962504;28;20827;-84
2023/10/27 10:18:33;;;;;;;2.93;2.50;;;21.50;45.00;;;;;;4965092;28;20473;-84
2023/10/27 10:20:59;;;;;;;3.37;3.07;;;21.50;44.90;;;;;;4945087;28;20468;-83
2023/10/27 10:23:44;;;;;;;3.30;3.10;;;21.50;45.00;;;;;;4965273;28;20463;-85
2023/10/27 10:26:10;;;;;;;3.30;2.60;;;21.50;45.00;;;;;;4979310;28;20346;-83
2023/10/27 10:28:40;;;;;;;2.83;2.63;;;21.50;45.00;;;;;;4965423;28;20601;-85
2023/10/27 10:31:13;;;;;;;3.53;3.33;;;21.50;45.00;;;;;;4961916;28;20227;-85
2023/10/27 10:33:40;;;;;;;2.70;2.50;;;21.50;45.00;;;;;;4949005;28;20481;-83
2023/10/27 10:36:12;;;;;;;2.83;2.63;;;21.50;45.00;;;;;;4963153;28;20471;-84
2023/10/27 10:38:40;;;;;;;3.40;3.10;;;21.50;45.00;;;;;;4962108;28;20481;-83
2023/10/27 10:41:05;;;;;;;3.00;2.70;;;21.50;45.00;;;;;;4965637;28;20510;-83
2023/10/27 10:43:34;;;;;;;2.97;2.77;;;21.50;45.80;;;;;;4965458;28;20454;-84
2023/10/27 10:46:05;;;;;;;3.23;2.93;;;21.40;44.90;;;;;;4957941;28;20221;-83
2023/10/27 10:48:32;;;;;;;2.87;2.67;;;21.50;45.00;;;;;;4965729;28;20551;-83
2023/10/27 10:51:18;;;;;;;2.70;2.50;;;21.50;45.10;;;;;;4965332;28;20459;-84
2023/10/27 10:53:50;;;;;;;3.30;3.00;;;21.50;45.00;;;;;;4948196;28;20485;-85
2023/10/27 10:56:16;;;;;;;2.43;2.23;;;21.50;45.00;;;;;;4970834;28;20465;-82
2023/10/27 10:58:42;;;;;;;3.00;2.80;;;21.50;45.10;;;;;;4948717;28;20465;-85
2023/10/27 11:01:15;;;;;;;2.97;2.77;;;21.50;45.00;;;;;;4963306;28;20586;-83
2023/10/27 11:03:46;;;;;;;2.80;2.40;;;21.50;45.00;;;;;;4964315;28;20225;-86
2023/10/27 11:06:12;;;;;;;2.73;2.53;;;21.50;45.00;;;;;;4960745;28;20567;-85
2023/10/27 11:08:37;;;;;;;2.53;2.33;;;21.50;45.10;;;;;;4964474;28;20552;-83
2023/10/27 11:11:14;;;;;;;2.30;2.10;;;21.50;45.00;;;;;;4963455;28;20228;-83
2023/10/27 11:13:48;;;;;;;2.80;2.47;;;21.50;45.00;;;;;;4963913;28;20236;-85
2023/10/27 11:16:22;;;;;;;2.63;2.43;;;21.50;45.00;;;;;;4964357;28;20488;-83
2023/10/27 11:18:50;;;;;;;2.60;2.40;;;21.50;45.00;;;;;;4951121;28;20477;-88
2023/10/27 11:21:16;;;;;;;2.47;2.27;;;21.50;45.00;;;;;;4963684;28;20475;-84
2023/10/27 11:23:42;;;;;;;2.10;2.00;;;21.50;45.00;;;;;;4976904;28;20974;-87
2023/10/27 11:26:08;;;;;;;2.63;2.47;;;21.50;45.00;;;;;;4964039;28;20480;-86
2023/10/27 11:28:44;;;;;;;2.40;2.20;;;21.50;45.00;;;;;;4966921;28;20240;-82
2023/10/27 11:31:26;;;;;;;2.60;2.40;;;21.50;44.90;;;;;;4968129;28;20457;-85
2023/10/27 11:34:01;;;;;;;3.57;2.53;;;21.50;45.00;;;;;;4951234;28;20912;-83
2023/10/27 11:36:27;;;;;;;2.47;2.30;;;21.50;45.00;;;;;;4961078;28;20468;-83
2023/10/27 11:38:53;;;;;;;3.33;2.43;;;21.50;45.00;;;;;;4981503;28;20929;-86
2023/10/27 11:41:19;;;;;;;3.00;2.80;;;21.40;44.90;;;;;;4969113;28;20505;-83
2023/10/27 11:43:45;;;;;;;2.83;2.63;;;21.50;45.00;;;;;;4970534;28;20242;-84
2023/10/27 11:46:17;;;;;;;3.10;2.90;;;21.50;45.00;;;;;;4964996;28;20240;-84
2023/10/27 11:48:43;;;;;;;3.17;2.97;;;21.50;44.90;;;;;;4968715;28;20469;-84
2023/10/27 11:51:10;;;;;;;2.73;2.53;;;21.50;45.00;;;;;;4968356;28;20507;-84
2023/10/27 11:53:44;;;;;;;3.40;3.10;;;21.50;45.00;;;;;;4965088;28;20441;-83
2023/10/27 11:56:11;;;;;;;2.90;2.70;;;21.50;45.00;;;;;;4963366;28;20526;-86
2023/10/27 11:58:36;;;;;;;3.23;2.93;;;21.50;45.00;;;;;;4968074;28;20562;-83
2023/10/27 12:01:02;;;;;;;2.73;2.53;;;21.50;45.00;;;;;;4969004;28;20454;-83
2023/10/27 12:03:27;;;;;;;2.80;2.60;;;21.50;45.00;;;;;;4967665;28;20229;-83
2023/10/27 12:05:53;;;;;;;3.03;2.83;;;21.50;45.00;;;;;;4966695;28;20892;-86
2023/10/27 12:08:20;;;;;;;2.90;2.70;;;21.50;45.00;;;;;;4966843;28;20261;-83
2023/10/27 12:10:45;;;;;;;3.30;3.10;;;21.50;45.00;;;;;;4953920;28;22194;-83
2023/10/27 12:13:11;;;;;;;2.77;2.57;;;21.40;44.90;;;;;;4943994;28;21028;-83
2023/10/27 12:15:37;;;;;;;2.30;2.20;;;21.50;45.00;;;;;;4965502;28;20260;-83
2023/10/27 12:18:08;;;;;;;2.63;2.43;;;21.50;45.10;;;;;;4968750;28;20681;-83
2023/10/27 12:20:38;;;;;;;2.30;2.10;;;21.50;45.00;;;;;;4967342;28;21221;-83
2023/10/27 12:23:08;;;;;;;3.30;3.10;;;21.50;45.10;;;;;;4969443;28;20471;-83
2023/10/27 12:25:36;;;;;;;3.13;2.93;;;21.50;45.10;;;;;;4951747;28;20437;-83
2023/10/27 12:28:02;;;;;;;2.53;2.33;;;21.50;45.00;;;;;;4976249;28;20465;-83
2023/10/27 12:30:30;;;;;;;2.23;2.13;;;21.50;45.10;;;;;;4965540;28;20462;-84
2023/10/27 12:32:56;;;;;;;4.13;3.10;;;21.50;45.10;;;;;;4967325;28;20485;-83
2023/10/27 12:35:22;;;;;;;2.73;2.53;;;21.50;45.10;;;;;;4969834;28;20470;-83
2023/10/27 12:37:52;;;;;;;2.80;2.60;;;21.50;45.10;;;;;;4965010;28;20469;-83
2023/10/27 12:40:18;;;;;;;2.30;2.20;;;21.50;45.00;;;;;;4965976;28;20618;-83
2023/10/27 12:42:43;;;;;;;2.60;2.40;;;21.50;45.10;;;;;;4968151;28;20454;-83
2023/10/27 12:45:12;;;;;;;2.50;2.40;;;21.50;45.10;;;;;;4967493;28;20216;-83
2023/10/27 12:47:40;;;;;;;2.30;2.10;;;21.50;45.10;;;;;;4943284;28;20248;-84